createdAt,value
2022-11-15T00:00:47.018Z,49.21
2022-11-15T00:01:47.027Z,45.07
2022-11-15T00:02:46.954Z,49.87
2022-11-15T00:03:46.971Z,51.12
2022-11-15T00:04:46.958Z,58.80
2022-11-15T00:05:46.954Z,46.00
2022-11-15T00:06:47.011Z,49.83
2022-11-15T00:07:55.518Z,45.27
2022-11-15T00:08:48.927Z,46.33
2022-11-15T00:09:46.905Z,53.09
2022-11-15T00:10:46.886Z,45.67
2022-11-15T00:11:46.877Z,55.30
2022-11-15T00:12:46.874Z,46.22
2022-11-15T00:13:46.861Z,45.96
2022-11-15T00:14:46.874Z,45.89
2022-11-15T00:15:46.835Z,47.39
2022-11-15T00:16:46.844Z,49.43
2022-11-15T00:17:46.824Z,46.17
2022-11-15T00:18:50.631Z,44.85
2022-11-15T00:19:47.909Z,44.89
2022-11-15T00:20:46.841Z,51.58
2022-11-15T00:21:46.811Z,48.50
2022-11-15T00:22:46.798Z,56.10
2022-11-15T00:23:46.822Z,47.42
2022-11-15T00:24:46.808Z,49.17
2022-11-15T00:25:46.775Z,55.90
2022-11-15T00:26:46.784Z,44.80
2022-11-15T00:27:46.747Z,44.67
2022-11-15T00:28:46.771Z,44.39
2022-11-15T00:29:46.781Z,44.58
2022-11-15T00:30:46.723Z,44.53
2022-11-15T00:31:46.789Z,44.55
2022-11-15T00:32:46.736Z,44.71
2022-11-15T00:33:46.723Z,44.86
2022-11-15T00:34:46.704Z,44.97
2022-11-15T00:35:46.711Z,51.17
2022-11-15T00:36:46.713Z,54.91
2022-11-15T00:37:47.735Z,47.20
2022-11-15T00:38:46.674Z,51.92
2022-11-15T00:39:46.715Z,61.35
2022-11-15T00:40:46.684Z,60.72
2022-11-15T00:41:46.657Z,62.14
2022-11-15T00:42:46.634Z,52.01
2022-11-15T00:43:46.634Z,49.58
2022-11-15T00:44:46.619Z,46.22
2022-11-15T00:45:46.630Z,52.61
2022-11-15T00:46:46.631Z,45.79
2022-11-15T00:47:46.649Z,50.81
2022-11-15T00:48:46.646Z,47.20
2022-11-15T00:49:47.384Z,48.04
2022-11-15T00:50:46.641Z,48.97
2022-11-15T00:51:46.610Z,47.40
2022-11-15T00:52:46.591Z,44.35
2022-11-15T00:53:46.580Z,44.39
2022-11-15T00:54:46.554Z,49.82
2022-11-15T00:55:46.550Z,49.75
2022-11-15T00:56:46.533Z,44.36
2022-11-15T00:57:46.517Z,49.63
2022-11-15T00:58:46.536Z,44.08
2022-11-15T00:59:46.552Z,49.96
2022-11-15T01:00:46.658Z,49.94
2022-11-15T01:01:46.488Z,49.62
2022-11-15T01:02:46.501Z,44.61
2022-11-15T01:03:46.475Z,50.03
2022-11-15T01:04:46.457Z,53.26
2022-11-15T01:05:46.483Z,53.75
2022-11-15T01:06:46.483Z,58.06
2022-11-15T01:07:46.440Z,49.06
2022-11-15T01:08:46.438Z,44.69
2022-11-15T01:09:46.436Z,52.01
2022-11-15T01:10:47.458Z,52.43
2022-11-15T01:11:46.422Z,45.28
2022-11-15T01:12:46.418Z,54.30
2022-11-15T01:13:46.419Z,44.12
2022-11-15T01:14:46.430Z,44.30
2022-11-15T01:15:46.431Z,50.98
2022-11-15T01:16:46.418Z,54.25
2022-11-15T01:17:46.384Z,45.10
2022-11-15T01:18:46.381Z,51.62
2022-11-15T01:19:46.395Z,48.99
2022-11-15T01:20:46.381Z,50.15
2022-11-15T01:21:46.368Z,44.65
2022-11-15T01:22:46.327Z,44.45
2022-11-15T01:23:46.356Z,53.01
2022-11-15T01:24:46.316Z,50.56
2022-11-15T01:25:46.312Z,51.45
2022-11-15T01:26:46.311Z,57.39
2022-11-15T01:27:46.326Z,55.07
2022-11-15T01:28:46.313Z,59.19
2022-11-15T01:29:46.284Z,49.75
2022-11-15T01:30:46.274Z,50.26
2022-11-15T01:31:46.271Z,56.89
2022-11-15T01:32:46.278Z,56.87
2022-11-15T01:33:46.285Z,58.56
2022-11-15T01:34:46.253Z,52.71
2022-11-15T01:35:46.260Z,46.14
2022-11-15T01:36:46.233Z,48.06
2022-11-15T01:37:46.360Z,52.35
2022-11-15T01:38:46.216Z,48.08
2022-11-15T01:39:46.203Z,51.01
2022-11-15T01:40:46.196Z,52.73
2022-11-15T01:41:46.200Z,59.15
2022-11-15T01:42:46.184Z,45.52
2022-11-15T01:43:46.180Z,50.74
2022-11-15T01:44:46.172Z,44.57
2022-11-15T02:03:22.628Z,63.17
2022-11-15T02:04:18.990Z,50.74
2022-11-15T02:05:18.947Z,49.81
2022-11-15T02:06:20.060Z,43.96
2022-11-15T02:07:20.183Z,43.58
2022-11-15T02:08:20.078Z,51.00
2022-11-15T02:09:20.050Z,53.11
2022-11-15T02:10:20.063Z,53.51
2022-11-15T02:11:20.034Z,43.60
2022-11-15T02:12:20.018Z,48.41
2022-11-15T02:13:20.034Z,50.18
2022-11-15T02:14:51.945Z,49.90
2022-11-15T02:15:20.020Z,61.89
2022-11-15T02:16:19.999Z,54.85
2022-11-15T02:17:20.069Z,43.75
2022-11-15T02:18:19.978Z,43.60
2022-11-15T02:19:19.992Z,49.83
2022-11-15T02:20:20.044Z,46.53
2022-11-15T02:21:19.955Z,46.86
2022-11-15T02:22:19.950Z,45.04
2022-11-15T02:23:19.949Z,45.11
2022-11-15T02:24:19.925Z,45.09
2022-11-15T02:25:20.011Z,45.02
2022-11-15T02:26:19.924Z,43.93
2022-11-15T02:27:19.939Z,43.78
2022-11-15T02:28:20.925Z,53.66
2022-11-15T02:29:19.910Z,50.55
2022-11-15T02:30:19.898Z,43.95
2022-11-15T02:31:20.543Z,49.60
2022-11-15T02:32:19.889Z,48.29
2022-11-15T02:33:19.875Z,43.73
2022-11-15T02:34:19.885Z,43.59
2022-11-15T02:35:19.839Z,43.68
2022-11-15T02:36:19.880Z,43.90
2022-11-15T02:37:19.834Z,52.83
2022-11-15T02:38:20.675Z,43.90
2022-11-15T02:39:19.836Z,43.76
2022-11-15T02:40:20.683Z,44.25
2022-11-15T02:41:19.850Z,50.15
2022-11-15T02:42:19.819Z,44.15
2022-11-15T02:43:19.788Z,47.69
2022-11-15T02:44:19.834Z,44.74
2022-11-15T02:45:19.781Z,43.71
2022-11-15T02:46:19.783Z,44.21
2022-11-15T02:47:19.767Z,49.18
2022-11-15T02:48:19.792Z,44.39
2022-11-15T02:49:20.721Z,49.61
2022-11-15T02:50:19.764Z,43.60
2022-11-15T02:51:19.742Z,43.55
2022-11-15T02:52:19.728Z,43.60
2022-11-15T02:53:19.739Z,43.53
2022-11-15T02:54:19.756Z,43.60
2022-11-15T02:55:19.711Z,46.67
2022-11-15T02:56:19.709Z,48.82
2022-11-15T02:57:19.696Z,50.39
2022-11-15T02:58:19.734Z,45.20
2022-11-15T02:59:19.701Z,44.68
2022-11-15T03:00:19.683Z,49.08
2022-11-15T03:01:19.752Z,47.79
2022-11-15T03:02:19.666Z,43.73
2022-11-15T03:03:19.717Z,48.31
2022-11-15T03:04:19.666Z,48.11
2022-11-15T03:05:19.636Z,45.69
2022-11-15T03:06:19.624Z,48.42
2022-11-15T03:07:19.722Z,45.00
2022-11-15T03:08:19.633Z,43.31
2022-11-15T03:09:19.591Z,43.25
2022-11-15T03:10:19.616Z,43.32
2022-11-15T03:11:19.614Z,43.81
2022-11-15T03:12:19.564Z,51.93
2022-11-15T03:13:19.583Z,53.68
2022-11-15T03:14:19.567Z,49.19
2022-11-15T03:15:19.588Z,48.93
2022-11-15T03:16:19.581Z,48.42
2022-11-15T03:17:19.548Z,54.01
2022-11-15T03:18:19.553Z,59.46
2022-11-15T03:19:19.544Z,45.58
2022-11-15T03:20:19.533Z,49.89
2022-11-15T03:21:19.499Z,43.41
2022-11-15T03:22:19.511Z,49.23
2022-11-15T03:23:19.506Z,51.27
2022-11-15T03:24:24.731Z,49.66
2022-11-15T03:25:21.468Z,49.30
2022-11-15T03:26:19.464Z,43.78
2022-11-15T03:27:19.495Z,43.74
2022-11-15T03:28:19.467Z,50.94
2022-11-15T03:29:19.467Z,60.14
2022-11-15T03:30:19.445Z,51.23
2022-11-15T03:31:19.456Z,49.20
2022-11-15T03:32:19.430Z,49.47
2022-11-15T03:33:19.406Z,54.26
2022-11-15T03:34:19.448Z,53.40
2022-11-15T03:35:19.397Z,43.82
2022-11-15T03:36:19.386Z,45.12
2022-11-15T03:37:19.393Z,51.39
2022-11-15T03:38:19.447Z,48.91
2022-11-15T03:39:20.837Z,53.98
2022-11-15T03:40:20.374Z,51.44
2022-11-15T03:41:19.381Z,55.51
2022-11-15T03:42:19.424Z,47.90
2022-11-15T03:43:19.346Z,58.01
2022-11-15T03:44:19.334Z,51.61
2022-11-15T03:45:19.336Z,47.58
2022-11-15T03:46:19.351Z,50.65
2022-11-15T03:47:19.311Z,50.65
2022-11-15T04:03:53.803Z,61.94
2022-11-15T04:04:53.823Z,47.32
2022-11-15T04:05:54.942Z,52.18
2022-11-15T04:06:54.955Z,59.08
2022-11-15T04:07:54.943Z,54.92
2022-11-15T04:08:54.923Z,51.15
2022-11-15T04:09:54.880Z,54.14
2022-11-15T04:10:55.584Z,64.20
2022-11-15T04:11:54.871Z,59.08
2022-11-15T04:12:54.885Z,61.70
2022-11-15T04:13:54.890Z,47.52
2022-11-15T04:14:54.868Z,61.18
2022-11-15T04:15:54.871Z,61.37
2022-11-15T04:16:54.844Z,60.56
2022-11-15T04:17:54.841Z,49.86
2022-11-15T04:18:54.832Z,64.24
2022-11-15T04:19:54.864Z,55.94
2022-11-15T04:20:54.830Z,60.20
2022-11-15T04:21:54.802Z,60.80
2022-11-15T04:22:54.771Z,60.67
2022-11-15T04:23:55.508Z,66.21
2022-11-15T04:24:54.785Z,51.83
2022-11-15T04:25:54.811Z,63.67
2022-11-15T04:26:54.752Z,51.67
2022-11-15T04:27:54.762Z,60.46
2022-11-15T04:28:54.755Z,67.40
2022-11-15T04:29:54.729Z,62.31
2022-11-15T04:30:54.767Z,56.90
2022-11-15T04:31:54.720Z,66.08
2022-11-15T04:32:54.707Z,57.94
2022-11-15T04:33:54.712Z,56.75
2022-11-15T04:34:54.691Z,59.28
2022-11-15T04:35:54.699Z,65.12
2022-11-15T04:36:54.681Z,62.51
2022-11-15T04:37:54.711Z,56.19
2022-11-15T04:38:54.698Z,61.67
2022-11-15T04:39:54.650Z,57.62
2022-11-15T04:40:54.659Z,68.53
2022-11-15T04:41:54.694Z,64.28
2022-11-15T04:42:58.190Z,63.53
2022-11-15T04:43:56.599Z,62.76
2022-11-15T04:44:54.611Z,64.44
2022-11-15T04:45:54.596Z,63.58
2022-11-15T04:46:55.603Z,69.62
2022-11-15T04:47:54.584Z,59.68
2022-11-15T04:48:58.512Z,66.46
2022-11-15T04:49:55.607Z,67.05
2022-11-15T04:50:54.562Z,62.28
2022-11-15T04:51:54.583Z,63.53
2022-11-15T04:52:54.571Z,68.05
2022-11-15T04:53:54.593Z,66.58
2022-11-15T04:54:54.550Z,62.65
2022-11-15T04:55:55.593Z,64.42
2022-11-15T04:56:54.523Z,56.29
2022-11-15T04:57:54.551Z,58.57
2022-11-15T04:58:54.524Z,64.31
2022-11-15T04:59:55.445Z,58.34
2022-11-15T05:00:54.511Z,64.57
2022-11-15T05:01:54.506Z,63.12
2022-11-15T05:02:54.511Z,65.96
2022-11-15T05:03:54.469Z,64.09
2022-11-15T05:04:54.487Z,64.50
2022-11-15T05:05:54.447Z,60.44
2022-11-15T05:06:54.545Z,57.34
2022-11-15T05:07:54.459Z,65.22
2022-11-15T05:08:54.421Z,67.44
2022-11-15T05:09:54.460Z,70.43
2022-11-15T05:10:54.398Z,65.64
2022-11-15T05:11:54.518Z,65.49
2022-11-15T05:12:54.391Z,63.83
2022-11-15T05:13:54.375Z,68.32
2022-11-15T05:14:54.394Z,60.58
2022-11-15T05:15:54.389Z,66.99
2022-11-15T05:16:54.366Z,59.04
2022-11-15T05:17:54.362Z,63.90
2022-11-15T05:18:54.341Z,63.82
2022-11-15T05:19:54.336Z,61.84
2022-11-15T05:20:54.349Z,64.04
2022-11-15T05:21:54.335Z,63.28
2022-11-15T05:22:55.126Z,63.48
2022-11-15T05:23:54.296Z,69.32
2022-11-15T05:24:54.300Z,70.25
2022-11-15T05:25:54.282Z,63.99
2022-11-15T05:26:54.285Z,65.80
2022-11-15T05:27:54.303Z,67.42
2022-11-15T05:28:54.262Z,63.25
2022-11-15T05:29:54.242Z,72.02
2022-11-15T05:30:54.252Z,64.87
2022-11-15T05:31:54.240Z,63.63
2022-11-15T05:32:54.237Z,69.26
2022-11-15T05:33:54.245Z,62.46
2022-11-15T05:34:54.223Z,69.38
2022-11-15T05:35:54.223Z,64.52
2022-11-15T05:36:54.221Z,66.06
2022-11-15T05:37:54.185Z,72.61
2022-11-15T05:38:54.224Z,68.10
2022-11-15T05:39:54.191Z,65.04
2022-11-15T05:40:54.177Z,69.07
2022-11-15T05:41:54.193Z,70.71
2022-11-15T05:42:54.192Z,68.65
2022-11-15T05:43:54.203Z,69.67
2022-11-15T05:44:55.124Z,71.10
2022-11-15T05:45:54.171Z,62.26
2022-11-15T05:46:54.225Z,67.18
2022-11-15T05:47:54.116Z,66.07
2022-11-15T05:48:55.059Z,72.30
2022-11-15T05:49:54.130Z,64.66
2022-11-15T05:50:54.140Z,70.07
2022-11-15T05:51:54.147Z,63.44
2022-11-15T05:52:54.115Z,66.07
2022-11-15T05:53:54.119Z,64.34
2022-11-15T05:54:54.101Z,63.89
2022-11-15T05:55:54.107Z,64.09
2022-11-15T05:56:55.075Z,67.29
2022-11-15T05:57:55.022Z,68.64
2022-11-15T05:58:59.072Z,69.18
2022-11-15T05:59:56.121Z,70.48
2022-11-15T06:00:54.200Z,70.44
2022-11-15T06:01:54.119Z,71.42
2022-11-15T06:02:54.014Z,69.46
2022-11-15T06:03:55.023Z,60.77
2022-11-15T06:04:54.062Z,66.60
2022-11-15T06:05:54.033Z,69.49
2022-11-15T06:06:54.046Z,63.32
2022-11-15T06:07:54.055Z,69.97
2022-11-15T06:08:54.006Z,71.20
2022-11-15T06:09:54.006Z,69.55
2022-11-15T06:10:54.048Z,71.67
2022-11-15T06:11:53.968Z,69.22
2022-11-15T06:12:53.951Z,71.12
2022-11-15T06:13:53.974Z,71.87
2022-11-15T06:14:53.952Z,69.74
2022-11-15T06:15:53.961Z,65.69
2022-11-15T06:16:53.925Z,65.63
2022-11-15T06:17:54.530Z,73.87
2022-11-15T06:18:53.917Z,71.03
2022-11-15T06:19:55.493Z,68.68
2022-11-15T06:20:53.910Z,68.37
2022-11-15T06:21:53.909Z,61.56
2022-11-15T06:22:53.878Z,75.55
2022-11-15T06:23:53.918Z,73.18
2022-11-15T06:24:53.861Z,71.15
2022-11-15T06:25:54.854Z,69.88
2022-11-15T06:26:53.873Z,70.55
2022-11-15T06:27:53.834Z,70.97
2022-11-15T06:28:53.853Z,71.43
2022-11-15T06:29:53.829Z,72.33
2022-11-15T06:30:53.867Z,70.82
2022-11-15T06:31:53.843Z,69.03
2022-11-15T06:32:53.812Z,73.37
2022-11-15T06:33:53.907Z,71.76
2022-11-15T06:34:53.801Z,71.68
2022-11-15T06:35:53.802Z,71.61
2022-11-15T06:36:53.765Z,68.98
2022-11-15T06:37:53.828Z,68.94
2022-11-15T06:38:53.785Z,69.73
2022-11-15T06:39:54.524Z,69.74
2022-11-15T06:40:53.808Z,73.40
2022-11-15T06:41:53.760Z,69.92
2022-11-15T06:42:54.713Z,69.08
2022-11-15T06:43:53.730Z,68.64
2022-11-15T06:44:53.707Z,69.08
2022-11-15T06:45:53.702Z,69.72
2022-11-15T06:46:54.735Z,67.39
2022-11-15T06:47:53.696Z,65.01
2022-11-15T06:48:53.675Z,72.72
2022-11-15T06:49:53.667Z,67.64
2022-11-15T06:50:53.684Z,69.14
2022-11-15T06:51:53.708Z,71.48
2022-11-15T06:52:53.629Z,70.42
2022-11-15T06:53:54.658Z,71.88
2022-11-15T06:54:53.678Z,71.48
2022-11-15T06:55:55.605Z,69.15
2022-11-15T06:56:54.712Z,66.46
2022-11-15T06:57:53.620Z,68.74
2022-11-15T06:58:54.527Z,69.66
2022-11-15T06:59:53.582Z,70.22
2022-11-15T07:00:54.611Z,66.65
2022-11-15T07:01:53.607Z,71.38
2022-11-15T07:02:53.596Z,68.59
2022-11-15T07:03:53.630Z,70.10
2022-11-15T07:04:53.551Z,66.24
2022-11-15T07:05:53.547Z,70.95
2022-11-15T07:06:53.575Z,68.56
2022-11-15T07:07:54.573Z,63.48
2022-11-15T07:08:53.530Z,65.21
2022-11-15T07:09:53.562Z,62.57
2022-11-15T07:10:53.530Z,68.57
2022-11-15T07:11:53.528Z,66.21
2022-11-15T07:12:53.507Z,67.22
2022-11-15T07:13:53.515Z,69.07
2022-11-15T07:14:53.503Z,64.23
2022-11-15T07:15:53.527Z,63.88
2022-11-15T07:16:53.489Z,63.74
2022-11-15T07:17:53.459Z,70.82
2022-11-15T07:18:53.502Z,72.98
2022-11-15T07:19:53.431Z,65.38
2022-11-15T07:20:53.450Z,62.35
2022-11-15T07:21:53.451Z,67.37
2022-11-15T07:22:53.473Z,73.42
2022-11-15T07:23:53.443Z,68.23
2022-11-15T07:24:53.498Z,69.72
2022-11-15T07:25:53.460Z,64.08
2022-11-15T07:26:53.387Z,68.26
2022-11-15T07:27:53.423Z,73.09
2022-11-15T07:28:53.383Z,68.00
2022-11-15T07:29:53.405Z,69.51
2022-11-15T07:30:53.433Z,68.51
2022-11-15T07:31:53.402Z,67.66
2022-11-15T07:32:53.381Z,68.27
2022-11-15T07:33:53.379Z,67.37
2022-11-15T07:34:53.347Z,62.27
2022-11-15T07:35:54.346Z,66.54
2022-11-15T07:36:53.305Z,67.69
2022-11-15T07:37:53.318Z,68.35
2022-11-15T07:38:53.304Z,69.15
2022-11-15T07:39:53.325Z,68.45
2022-11-15T07:40:53.409Z,67.50
2022-11-15T07:41:53.297Z,63.96
2022-11-15T07:42:53.298Z,70.17
2022-11-15T07:43:53.251Z,68.63
2022-11-15T07:44:53.249Z,67.13
2022-11-15T07:45:57.698Z,69.38
2022-11-15T07:46:55.254Z,71.82
2022-11-15T07:47:53.235Z,65.10
2022-11-15T07:48:53.215Z,66.45
2022-11-15T07:49:53.216Z,66.05
2022-11-15T07:50:53.208Z,70.15
2022-11-15T07:51:53.225Z,66.21
2022-11-15T07:52:53.612Z,71.42
2022-11-15T07:53:53.175Z,62.48
2022-11-15T07:54:53.176Z,67.19
2022-11-15T07:55:53.212Z,68.86
2022-11-15T07:56:53.147Z,66.70
2022-11-15T07:57:53.165Z,67.06
2022-11-15T07:58:53.140Z,66.28
2022-11-15T07:59:53.156Z,69.05
2022-11-15T08:00:53.202Z,67.72
2022-11-15T08:01:54.251Z,56.70
2022-11-15T08:02:53.424Z,72.19
2022-11-15T08:03:53.163Z,65.61
2022-11-15T08:04:53.108Z,66.12
2022-11-15T08:05:53.079Z,63.52
2022-11-15T08:06:53.190Z,64.77
2022-11-15T08:07:53.088Z,69.13
2022-11-15T08:08:53.065Z,69.22
2022-11-15T08:09:53.053Z,69.87
2022-11-15T08:10:53.041Z,69.72
2022-11-15T08:11:53.108Z,67.79
2022-11-15T08:12:53.112Z,65.86
2022-11-15T08:13:54.021Z,66.66
2022-11-15T08:15:24.944Z,68.06
2022-11-15T08:15:57.526Z,69.77
2022-11-15T08:16:53.994Z,64.38
2022-11-15T08:17:53.020Z,63.84
2022-11-15T08:18:52.991Z,68.22
2022-11-15T08:19:53.009Z,67.87
2022-11-15T08:20:52.972Z,65.46
2022-11-15T08:21:52.966Z,63.63
2022-11-15T08:22:52.953Z,63.62
2022-11-15T08:23:53.964Z,61.73
2022-11-15T08:24:53.558Z,72.03
2022-11-15T08:25:52.933Z,68.52
2022-11-15T08:26:52.982Z,68.35
2022-11-15T08:27:52.910Z,65.41
2022-11-15T08:28:52.906Z,62.93
2022-11-15T08:29:56.837Z,71.12
2022-11-15T08:30:53.917Z,65.04
2022-11-15T08:31:52.877Z,62.53
2022-11-15T08:32:52.880Z,68.78
2022-11-15T08:33:52.895Z,64.52
2022-11-15T08:34:52.883Z,60.20
2022-11-15T08:35:52.849Z,64.72
2022-11-15T08:36:52.880Z,67.01
2022-11-15T08:37:52.833Z,57.43
2022-11-15T08:38:52.841Z,65.59
2022-11-15T08:39:52.859Z,67.23
2022-11-15T08:40:52.827Z,67.69
2022-11-15T08:41:52.854Z,62.82
2022-11-15T08:42:52.853Z,61.25
2022-11-15T08:43:52.788Z,69.37
2022-11-15T08:44:52.836Z,65.50
2022-11-15T08:45:52.768Z,67.05
2022-11-15T08:46:52.765Z,65.36
2022-11-15T08:47:54.455Z,65.14
2022-11-15T08:48:53.759Z,67.93
2022-11-15T08:49:53.615Z,64.64
2022-11-15T08:50:52.808Z,70.01
2022-11-15T08:51:52.711Z,66.78
2022-11-15T08:52:52.759Z,65.09
2022-11-15T08:53:52.733Z,64.22
2022-11-15T08:54:52.693Z,64.94
2022-11-15T08:55:52.690Z,66.25
2022-11-15T08:56:52.701Z,68.21
2022-11-15T08:57:52.708Z,65.23
2022-11-15T08:58:53.727Z,65.68
2022-11-15T08:59:52.659Z,63.78
2022-11-15T09:00:52.666Z,63.58
2022-11-15T09:01:52.724Z,65.66
2022-11-15T09:02:52.657Z,64.43
2022-11-15T09:03:52.666Z,62.36
2022-11-15T09:04:52.646Z,68.28
2022-11-15T09:05:52.627Z,63.10
2022-11-15T09:06:52.729Z,70.20
2022-11-15T09:07:52.639Z,60.30
2022-11-15T09:08:52.750Z,67.97
2022-11-15T09:09:52.615Z,69.96
2022-11-15T09:10:52.647Z,68.93
2022-11-15T09:11:55.736Z,58.64
2022-11-15T09:12:53.581Z,69.23
2022-11-15T09:13:52.564Z,67.77
2022-11-15T09:14:52.593Z,63.86
2022-11-15T09:15:52.559Z,67.10
2022-11-15T09:16:52.540Z,67.74
2022-11-15T09:17:52.531Z,65.17
2022-11-15T09:18:52.566Z,67.65
2022-11-15T09:19:52.527Z,63.99
2022-11-15T09:20:52.503Z,69.18
2022-11-15T09:21:53.130Z,65.33
2022-11-15T09:22:52.499Z,67.24
2022-11-15T09:23:52.510Z,63.95
2022-11-15T09:24:52.491Z,68.23
2022-11-15T09:25:52.535Z,64.18
2022-11-15T09:26:52.466Z,67.36
2022-11-15T09:27:52.466Z,60.26
2022-11-15T09:28:52.439Z,63.49
2022-11-15T09:29:52.451Z,69.95
2022-11-15T09:30:52.463Z,65.08
2022-11-15T09:31:52.485Z,69.91
2022-11-15T09:32:52.422Z,63.29
2022-11-15T09:33:52.479Z,67.76
2022-11-15T09:34:52.393Z,59.62
2022-11-15T09:35:52.439Z,61.05
2022-11-15T09:36:52.451Z,69.62
2022-11-15T09:37:56.297Z,60.73
2022-11-15T09:38:53.372Z,67.05
2022-11-15T09:39:52.357Z,67.46
2022-11-15T09:40:52.356Z,61.01
2022-11-15T09:41:52.417Z,63.36
2022-11-15T09:42:52.375Z,68.06
2022-11-15T09:43:52.338Z,64.03
2022-11-15T09:44:52.334Z,67.68
2022-11-15T09:45:52.325Z,65.73
2022-11-15T09:46:52.322Z,67.55
2022-11-15T09:47:52.333Z,64.90
2022-11-15T09:48:52.297Z,61.59
2022-11-15T09:49:56.631Z,63.50
2022-11-15T09:50:54.302Z,72.26
2022-11-15T09:51:53.099Z,66.22
2022-11-15T09:52:52.290Z,59.13
2022-11-15T09:54:55.520Z,62.78
2022-11-15T09:55:53.263Z,63.62
2022-11-15T09:56:52.244Z,66.38
2022-11-15T09:57:52.262Z,64.35
2022-11-15T09:58:52.235Z,63.25
2022-11-15T09:59:52.223Z,68.31
2022-11-15T10:00:52.239Z,66.95
2022-11-15T10:01:52.349Z,64.12
2022-11-15T10:02:52.251Z,65.32
2022-11-15T10:03:52.266Z,63.65
2022-11-15T10:04:52.288Z,68.01
2022-11-15T10:05:52.167Z,69.26
2022-11-15T10:06:52.171Z,66.62
2022-11-15T10:07:52.197Z,67.48
2022-11-15T10:08:52.171Z,64.95
2022-11-15T10:09:52.177Z,64.91
2022-11-15T10:11:09.658Z,65.94
2022-11-15T10:11:54.110Z,65.00
2022-11-15T10:12:52.166Z,66.39
2022-11-15T10:13:52.113Z,67.00
2022-11-15T10:14:54.593Z,68.27
2022-11-15T10:15:53.130Z,61.13
2022-11-15T10:16:53.126Z,68.70
2022-11-15T10:17:52.119Z,66.10
2022-11-15T10:18:52.105Z,70.54
2022-11-15T10:19:52.052Z,60.58
2022-11-15T10:20:52.068Z,66.63
2022-11-15T10:21:52.063Z,69.58
2022-11-15T10:22:52.090Z,64.96
2022-11-15T10:23:52.015Z,60.95
2022-11-15T10:24:52.092Z,68.11
2022-11-15T10:25:52.022Z,69.90
2022-11-15T10:26:52.035Z,62.84
2022-11-15T10:27:52.034Z,67.02
2022-11-15T10:28:52.652Z,66.03
2022-11-15T10:29:51.991Z,67.53
2022-11-15T10:30:52.022Z,68.68
2022-11-15T10:31:51.961Z,67.63
2022-11-15T10:32:51.957Z,69.71
2022-11-15T10:33:52.053Z,62.94
2022-11-15T10:34:51.945Z,65.08
2022-11-15T10:35:51.975Z,63.64
2022-11-15T10:36:51.982Z,62.11
2022-11-15T10:37:52.616Z,64.98
2022-11-15T10:38:51.960Z,65.92
2022-11-15T10:39:51.923Z,66.76
2022-11-15T10:40:51.884Z,65.03
2022-11-15T10:41:51.914Z,64.63
2022-11-15T10:42:51.977Z,65.63
2022-11-15T10:43:51.859Z,56.80
2022-11-15T10:44:51.903Z,68.13
2022-11-15T10:45:51.892Z,70.02
2022-11-15T10:46:51.851Z,58.82
2022-11-15T10:47:51.844Z,69.86
2022-11-15T10:48:51.818Z,67.69
2022-11-15T10:49:51.897Z,66.86
2022-11-15T10:50:51.827Z,61.33
2022-11-15T10:51:51.924Z,66.00
2022-11-15T10:52:51.958Z,66.90
2022-11-15T10:53:51.794Z,68.31
2022-11-15T10:54:51.801Z,63.01
2022-11-15T10:55:51.766Z,64.79
2022-11-15T10:56:51.777Z,64.71
2022-11-15T10:57:51.914Z,59.95
2022-11-15T10:58:51.747Z,67.66
2022-11-15T10:59:51.764Z,68.24
2022-11-15T11:00:51.804Z,65.62
2022-11-15T11:01:51.755Z,62.21
2022-11-15T11:02:51.760Z,68.62
2022-11-15T11:03:52.638Z,66.00
2022-11-15T11:04:51.698Z,60.95
2022-11-15T11:05:51.742Z,66.25
2022-11-15T11:06:51.764Z,69.51
2022-11-15T11:07:51.698Z,69.53
2022-11-15T11:08:51.702Z,60.32
2022-11-15T11:09:51.662Z,61.71
2022-11-15T11:10:53.483Z,66.41
2022-11-15T11:11:52.656Z,68.81
2022-11-15T11:12:51.651Z,67.98
2022-11-15T11:13:51.632Z,68.59
2022-11-15T11:14:51.627Z,65.22
2022-11-15T11:15:51.619Z,66.16
2022-11-15T11:16:51.638Z,64.72
2022-11-15T11:17:51.644Z,68.61
2022-11-15T11:18:51.609Z,65.46
2022-11-15T11:19:51.603Z,66.25
2022-11-15T11:20:51.580Z,69.14
2022-11-15T11:21:51.603Z,55.08
2022-11-15T11:22:51.597Z,69.23
2022-11-15T11:23:51.570Z,65.43
2022-11-15T11:24:51.539Z,64.29
2022-11-15T11:25:51.582Z,70.13
2022-11-15T11:26:56.704Z,65.76
2022-11-15T11:27:53.543Z,67.96
2022-11-15T11:28:51.521Z,67.40
2022-11-15T11:29:51.532Z,62.93
2022-11-15T11:30:51.546Z,59.27
2022-11-15T11:31:51.507Z,70.27
2022-11-15T11:32:55.263Z,65.12
2022-11-15T11:33:52.504Z,67.29
2022-11-15T11:34:51.539Z,64.86
2022-11-15T11:35:51.473Z,65.94
2022-11-15T11:36:51.468Z,64.57
2022-11-15T11:37:51.484Z,64.45
2022-11-15T11:38:51.465Z,66.31
2022-11-15T11:39:52.159Z,69.05
2022-11-15T11:40:51.472Z,62.52
2022-11-15T11:41:51.486Z,65.11
2022-11-15T11:42:51.435Z,68.34
2022-11-15T11:43:51.447Z,64.01
2022-11-15T11:44:51.406Z,66.61
2022-11-15T11:45:51.412Z,62.62
2022-11-15T11:46:51.425Z,65.04
2022-11-15T11:47:51.375Z,67.21
2022-11-15T11:48:51.451Z,68.89
2022-11-15T11:49:51.369Z,64.65
2022-11-15T11:50:51.397Z,65.90
2022-11-15T11:51:51.354Z,58.97
2022-11-15T11:52:51.371Z,65.64
2022-11-15T11:53:51.603Z,59.12
2022-11-15T11:54:51.323Z,67.35
2022-11-15T11:55:51.336Z,65.59
2022-11-15T11:56:51.305Z,67.64
2022-11-15T11:57:51.339Z,67.07
2022-11-15T11:58:51.364Z,66.16
2022-11-15T11:59:51.335Z,68.36
2022-11-15T12:00:51.283Z,64.34
2022-11-15T12:01:51.348Z,65.35
2022-11-15T12:02:51.382Z,66.39
2022-11-15T12:03:51.287Z,68.89
2022-11-15T12:04:51.256Z,66.70
2022-11-15T12:05:51.349Z,66.18
2022-11-15T12:06:51.268Z,67.64
2022-11-15T12:07:51.260Z,69.21
2022-11-15T12:08:51.261Z,67.02
2022-11-15T12:09:51.269Z,64.04
2022-11-15T12:10:51.241Z,60.52
2022-11-15T12:11:51.190Z,65.75
2022-11-15T12:12:51.191Z,63.14
2022-11-15T12:13:51.177Z,67.29
2022-11-15T12:14:51.200Z,70.26
2022-11-15T12:15:51.204Z,64.26
2022-11-15T12:16:51.179Z,65.72
2022-11-15T12:17:51.137Z,67.54
2022-11-15T12:18:51.141Z,67.59
2022-11-15T12:19:51.214Z,68.31
2022-11-15T12:20:51.194Z,71.17
2022-11-15T12:21:51.123Z,65.25
2022-11-15T12:22:51.114Z,66.40
2022-11-15T12:23:51.148Z,63.87
2022-11-15T12:24:51.099Z,69.86
2022-11-15T12:25:51.109Z,69.03
2022-11-15T12:26:51.118Z,65.88
2022-11-15T12:27:51.106Z,66.13
2022-11-15T12:29:06.499Z,66.89
2022-11-15T12:29:53.081Z,62.20
2022-11-15T12:30:51.081Z,69.74
2022-11-15T12:31:51.068Z,67.27
2022-11-15T12:32:51.048Z,64.84
2022-11-15T12:33:51.044Z,65.28
2022-11-15T12:34:51.028Z,69.62
2022-11-15T12:35:51.025Z,66.19
2022-11-15T12:36:51.026Z,67.15
2022-11-15T12:37:51.005Z,66.92
2022-11-15T12:38:51.074Z,67.84
2022-11-15T12:39:51.003Z,70.09
2022-11-15T12:40:50.992Z,65.87
2022-11-15T12:41:50.976Z,69.50
2022-11-15T12:42:51.018Z,70.86
2022-11-15T12:43:50.987Z,68.59
2022-11-15T12:44:51.018Z,67.45
2022-11-15T12:45:50.953Z,67.66
2022-11-15T12:46:50.978Z,68.86
2022-11-15T12:47:50.963Z,68.60
2022-11-15T12:48:50.997Z,64.75
2022-11-15T12:49:50.925Z,67.45
2022-11-15T12:50:50.936Z,68.37
2022-11-15T12:51:50.920Z,68.89
2022-11-15T12:52:50.940Z,65.41
2022-11-15T12:53:50.946Z,64.81
2022-11-15T12:54:50.887Z,68.30
2022-11-15T12:55:50.889Z,62.56
2022-11-15T12:56:50.941Z,67.95
2022-11-15T12:57:50.850Z,66.26
2022-11-15T12:58:50.854Z,63.63
2022-11-15T12:59:51.005Z,70.59
2022-11-15T13:00:50.851Z,66.10
2022-11-15T13:01:50.934Z,59.50
2022-11-15T13:02:50.815Z,66.77
2022-11-15T13:03:50.824Z,66.35
2022-11-15T13:04:50.837Z,64.08
2022-11-15T13:05:50.796Z,66.50
2022-11-15T13:06:50.901Z,64.82
2022-11-15T13:07:50.828Z,67.43
2022-11-15T13:08:50.779Z,65.50
2022-11-15T13:09:50.814Z,66.64
2022-11-15T13:10:50.862Z,67.13
2022-11-15T13:11:50.773Z,68.17
2022-11-15T13:12:50.727Z,63.96
2022-11-15T13:13:50.744Z,68.63
2022-11-15T13:14:50.725Z,64.14
2022-11-15T13:15:50.727Z,67.96
2022-11-15T13:16:50.711Z,67.43
2022-11-15T13:17:50.958Z,68.69
2022-11-15T13:18:50.716Z,66.57
2022-11-15T13:19:50.721Z,67.88
2022-11-15T13:20:50.678Z,69.78
2022-11-15T13:21:50.686Z,67.94
2022-11-15T13:22:50.694Z,67.83
2022-11-15T13:23:50.708Z,61.01
2022-11-15T13:24:50.652Z,63.85
2022-11-15T13:25:50.633Z,67.45
2022-11-15T13:26:50.663Z,68.01